createdAt,value
2022-08-19T00:01:32.229Z,75.27
2022-08-19T00:04:08.665Z,74.97
2022-08-19T00:06:36.940Z,74.90
2022-08-19T00:09:06.638Z,75.23
2022-08-19T00:11:33.253Z,75.62
2022-08-19T00:13:59.710Z,75.63
2022-08-19T00:16:27.056Z,75.45
2022-08-19T00:18:55.578Z,75.78
2022-08-19T00:21:23.934Z,76.17
2022-08-19T00:23:50.373Z,76.42
2022-08-19T00:26:16.836Z,76.19
2022-08-19T00:28:43.273Z,76.70
2022-08-19T00:31:10.625Z,76.51
2022-08-19T00:33:37.750Z,76.08
2022-08-19T00:36:07.916Z,76.59
2022-08-19T00:38:37.766Z,76.48
2022-08-19T00:41:06.401Z,76.43
2022-08-19T00:43:33.343Z,76.40
2022-08-19T00:45:59.800Z,76.72
2022-08-19T00:48:26.231Z,76.66
2022-08-19T00:50:53.803Z,76.69
2022-08-19T00:53:24.002Z,76.92
2022-08-19T00:55:53.714Z,76.92
2022-08-19T00:58:23.144Z,76.96
2022-08-19T01:00:49.748Z,77.17
2022-08-19T01:03:20.201Z,77.64
2022-08-19T01:05:50.238Z,77.28
2022-08-19T01:08:18.898Z,77.21
2022-08-19T01:10:49.828Z,77.08
2022-08-19T01:13:20.013Z,77.04
2022-08-19T01:15:50.999Z,77.51
2022-08-19T01:18:20.146Z,77.65
2022-08-19T01:20:47.532Z,77.09
2022-08-19T01:23:14.651Z,76.86
2022-08-19T01:25:50.755Z,76.91
2022-08-19T01:28:34.300Z,77.11
2022-08-19T01:31:27.190Z,77.10
2022-08-19T01:33:56.526Z,77.02
2022-08-19T01:36:36.256Z,77.65
2022-08-19T01:39:06.614Z,77.35
2022-08-19T01:41:33.525Z,77.22
2022-08-19T01:44:17.043Z,77.58
2022-08-19T01:46:47.804Z,77.51
2022-08-19T01:49:14.132Z,77.38
2022-08-19T01:51:40.651Z,76.98
2022-08-19T01:54:12.426Z,76.98
2022-08-19T01:56:38.961Z,77.31
2022-08-19T01:59:11.421Z,77.67
2022-08-19T02:01:37.791Z,77.61
2022-08-19T02:04:04.368Z,77.58
2022-08-19T02:06:30.961Z,77.56
2022-08-19T02:08:57.831Z,77.43
2022-08-19T02:11:30.980Z,77.21
2022-08-19T02:13:59.198Z,77.45
2022-08-19T02:16:25.561Z,77.40
2022-08-19T02:18:52.479Z,77.08
2022-08-19T02:21:20.846Z,77.05
2022-08-19T02:23:47.621Z,77.27
2022-08-19T02:26:14.302Z,77.40
2022-08-19T02:28:42.003Z,77.43
2022-08-19T02:31:17.967Z,77.04
2022-08-19T02:33:45.561Z,77.33
2022-08-19T02:36:15.558Z,77.11
2022-08-19T02:38:42.951Z,77.19
2022-08-19T02:41:23.040Z,77.26
2022-08-19T02:44:26.497Z,77.19
2022-08-19T02:46:40.325Z,77.12
2022-08-19T02:49:08.674Z,77.15
2022-08-19T02:51:39.986Z,77.39
2022-08-19T02:54:08.441Z,77.19
2022-08-19T02:56:36.897Z,77.19
2022-08-19T02:59:04.908Z,76.97
2022-08-19T03:01:33.543Z,77.81
2022-08-19T03:04:06.178Z,77.79
2022-08-19T03:06:33.114Z,77.39
2022-08-19T03:08:59.571Z,77.40
2022-08-19T03:11:31.848Z,77.69
2022-08-19T03:13:59.590Z,77.53
2022-08-19T03:16:33.507Z,77.53
2022-08-19T03:19:01.571Z,77.42
2022-08-19T03:21:30.702Z,77.71
2022-08-19T03:24:03.008Z,77.63
2022-08-19T03:26:30.710Z,77.63
2022-08-19T03:28:58.768Z,77.60
2022-08-19T03:31:43.664Z,77.63
2022-08-19T03:34:16.870Z,77.69
2022-08-19T03:36:43.213Z,78.04
2022-08-19T03:39:11.393Z,78.08
2022-08-19T03:41:45.449Z,77.85
2022-08-19T03:44:18.941Z,78.11
2022-08-19T03:46:48.054Z,78.07
2022-08-19T03:49:14.964Z,78.44
2022-08-19T03:51:42.709Z,78.33
2022-08-19T03:54:12.310Z,78.55
2022-08-19T03:56:40.538Z,78.56
2022-08-19T03:59:09.530Z,78.61
2022-08-19T04:01:36.481Z,78.63
2022-08-19T04:04:04.833Z,78.74
2022-08-19T04:06:33.788Z,78.73
2022-08-19T04:09:02.372Z,78.72
2022-08-19T04:11:43.165Z,78.51
2022-08-19T04:14:13.118Z,78.98
2022-08-19T04:16:39.571Z,78.93
2022-08-19T04:19:07.363Z,79.36
2022-08-19T04:21:35.162Z,79.36
2022-08-19T04:24:02.310Z,79.33
2022-08-19T04:26:35.196Z,79.43
2022-08-19T04:29:10.432Z,79.83
2022-08-19T04:31:38.742Z,79.68
2022-08-19T04:34:07.964Z,79.92
2022-08-19T04:36:37.119Z,79.60
2022-08-19T04:39:08.221Z,79.58
2022-08-19T04:41:35.238Z,79.07
2022-08-19T04:44:04.415Z,79.04
2022-08-19T04:46:40.186Z,78.68
2022-08-19T04:49:22.575Z,78.05
2022-08-19T04:51:50.239Z,77.51
2022-08-19T04:54:36.968Z,77.88
2022-08-19T04:57:05.505Z,77.71
2022-08-19T04:59:31.967Z,77.86
2022-08-19T05:01:58.547Z,78.29
2022-08-19T05:04:25.217Z,78.03
2022-08-19T05:06:51.570Z,78.01
2022-08-19T05:09:18.278Z,77.73
2022-08-19T05:11:44.995Z,78.05
2022-08-19T05:14:12.034Z,78.17
2022-08-19T05:16:38.717Z,77.90
2022-08-19T05:19:05.162Z,77.80
2022-08-19T05:21:33.190Z,77.49
2022-08-19T05:23:59.874Z,77.82
2022-08-19T05:26:27.232Z,77.37
2022-08-19T05:28:54.670Z,77.49
2022-08-19T05:31:22.565Z,76.81
2022-08-19T05:33:49.094Z,76.69
2022-08-19T05:36:15.454Z,76.80
2022-08-19T05:38:41.876Z,76.44
2022-08-19T05:41:12.835Z,76.48
2022-08-19T05:43:39.618Z,76.11
2022-08-19T05:46:08.124Z,75.73
2022-08-19T05:48:35.374Z,75.89
2022-08-19T05:51:08.416Z,75.56
2022-08-19T05:53:36.188Z,75.08
2022-08-19T05:56:09.535Z,74.86
2022-08-19T05:58:37.121Z,74.53
2022-08-19T06:01:05.824Z,74.53
2022-08-19T06:03:35.412Z,74.74
2022-08-19T06:06:01.776Z,74.30
2022-08-19T06:08:33.859Z,74.34
2022-08-19T06:11:21.355Z,74.15
2022-08-19T06:13:50.883Z,73.64
2022-08-19T06:16:18.661Z,73.16
2022-08-19T06:18:45.010Z,73.23
2022-08-19T06:21:11.485Z,72.69
2022-08-19T06:23:38.343Z,71.79
2022-08-19T06:26:04.726Z,71.87
2022-08-19T06:28:31.131Z,71.54
2022-08-19T06:30:57.465Z,71.47
2022-08-19T06:33:23.794Z,71.39
2022-08-19T06:35:50.348Z,70.17
2022-08-19T06:38:16.688Z,70.28
2022-08-19T06:43:10.437Z,69.96
2022-08-19T06:45:38.691Z,69.77
2022-08-19T06:48:06.016Z,69.24
2022-08-19T06:50:32.438Z,68.10
2022-08-19T06:53:01.479Z,68.53
2022-08-19T06:55:31.203Z,67.95
2022-08-19T06:58:03.160Z,67.90
2022-08-19T07:02:59.480Z,66.62
2022-08-19T07:05:27.717Z,66.20
2022-08-19T07:07:54.162Z,65.67
2022-08-19T07:10:24.727Z,65.17
2022-08-19T07:12:52.520Z,64.72
2022-08-19T07:15:19.018Z,64.53
2022-08-19T07:17:45.386Z,64.41
2022-08-19T07:20:14.522Z,62.88
2022-08-19T07:22:41.128Z,62.12
2022-08-19T07:25:09.446Z,61.82
2022-08-19T07:27:36.272Z,62.96
2022-08-19T07:30:04.036Z,62.42
2022-08-19T07:32:30.366Z,62.75
2022-08-19T07:34:57.187Z,63.12
2022-08-19T07:37:28.299Z,61.31
2022-08-19T07:39:57.316Z,61.32
2022-08-19T07:42:23.678Z,61.56
2022-08-19T07:44:51.084Z,61.51
2022-08-19T07:47:50.024Z,62.03
2022-08-19T07:50:07.877Z,62.24
2022-08-19T07:52:34.672Z,61.78
2022-08-19T07:55:01.014Z,62.16
2022-08-19T07:57:27.345Z,60.64
2022-08-19T07:59:53.811Z,61.08
2022-08-19T08:02:20.211Z,61.40
2022-08-19T08:04:46.790Z,61.07
2022-08-19T08:07:13.228Z,60.19
2022-08-19T08:09:42.077Z,60.69
2022-08-19T08:12:32.936Z,61.34
2022-08-19T08:15:02.785Z,62.09
2022-08-19T08:17:31.227Z,61.68
2022-08-19T08:20:16.499Z,61.98
2022-08-19T08:22:47.770Z,61.49
2022-08-19T08:25:19.341Z,61.35
2022-08-19T08:27:47.479Z,61.54
2022-08-19T08:30:23.125Z,61.10
2022-08-19T08:32:50.647Z,61.11
2022-08-19T08:35:21.066Z,60.68
2022-08-19T08:37:50.690Z,60.83
2022-08-19T08:40:31.401Z,60.30
2022-08-19T08:43:11.148Z,60.30
2022-08-19T08:45:51.883Z,59.79
2022-08-19T08:48:47.428Z,59.98
2022-08-19T08:51:24.639Z,60.26
2022-08-19T08:53:57.099Z,59.46
2022-08-19T08:56:23.831Z,59.25
2022-08-19T08:59:03.353Z,58.71
2022-08-19T09:01:30.429Z,58.50
2022-08-19T09:03:57.580Z,58.33
2022-08-19T09:06:38.281Z,58.23
2022-08-19T09:09:13.259Z,57.07
2022-08-19T09:11:57.778Z,56.82
2022-08-19T09:14:53.193Z,56.36
2022-08-19T09:17:26.201Z,55.77
2022-08-19T09:20:13.446Z,55.62
2022-08-19T09:22:42.298Z,54.92
2022-08-19T09:25:11.524Z,55.11
2022-08-19T09:27:53.936Z,54.52
2022-08-19T09:30:26.551Z,54.57
2022-08-19T09:32:53.817Z,54.54
2022-08-19T09:35:22.677Z,54.27
2022-08-19T09:37:49.495Z,54.92
2022-08-19T09:40:24.764Z,55.28
2022-08-19T09:42:52.567Z,54.87
2022-08-19T09:45:22.402Z,54.61
2022-08-19T09:47:51.416Z,54.64
2022-08-19T09:50:18.395Z,55.54
2022-08-19T09:52:53.847Z,55.98
2022-08-19T09:55:31.316Z,56.29
2022-08-19T09:58:00.563Z,55.24
2022-08-19T10:00:26.971Z,53.71
2022-08-19T10:02:53.374Z,53.53
2022-08-19T10:05:26.774Z,52.92
2022-08-19T10:07:53.701Z,54.54
2022-08-19T10:10:23.173Z,54.03
2022-08-19T10:12:51.238Z,53.02
2022-08-19T10:15:17.779Z,53.30
2022-08-19T10:17:56.411Z,53.50
2022-08-19T10:20:23.160Z,53.99
2022-08-19T10:22:51.834Z,54.75
2022-08-19T10:25:19.758Z,53.87
2022-08-19T10:27:51.479Z,54.00
2022-08-19T10:30:18.407Z,54.69
2022-08-19T10:32:46.643Z,54.72
2022-08-19T10:35:14.473Z,54.47
2022-08-19T10:37:56.720Z,54.48
2022-08-19T10:40:24.411Z,54.73
2022-08-19T10:42:51.173Z,54.34
2022-08-19T10:45:17.647Z,53.94
2022-08-19T10:47:44.114Z,53.19
2022-08-19T10:50:11.822Z,53.45
2022-08-19T10:52:39.643Z,53.79
2022-08-19T10:55:16.085Z,53.89
2022-08-19T11:00:28.825Z,54.11
2022-08-19T11:02:55.206Z,53.83
2022-08-19T11:05:21.542Z,53.49
2022-08-19T11:07:51.687Z,54.10
2022-08-19T11:10:21.608Z,52.54
2022-08-19T11:12:49.179Z,53.05
2022-08-19T11:15:15.767Z,53.93
2022-08-19T11:17:42.318Z,54.93
2022-08-19T11:20:09.315Z,54.44
2022-08-19T11:22:40.635Z,54.09
2022-08-19T11:25:10.980Z,53.88
2022-08-19T11:27:41.891Z,54.05
2022-08-19T11:30:09.504Z,54.60
2022-08-19T11:32:42.651Z,54.49
2022-08-19T11:35:12.311Z,54.15
2022-08-19T11:37:38.702Z,53.49
2022-08-19T11:40:07.232Z,54.11
2022-08-19T11:42:33.603Z,53.29
2022-08-19T11:44:59.933Z,53.13
2022-08-19T11:47:26.340Z,52.47
2022-08-19T11:49:52.666Z,52.88
2022-08-19T11:52:19.044Z,51.99
2022-08-19T11:54:45.467Z,51.40
2022-08-19T11:57:11.807Z,51.76
2022-08-19T11:59:38.131Z,50.81
2022-08-19T12:02:04.690Z,50.91
2022-08-19T12:04:31.084Z,51.71
2022-08-19T12:06:57.405Z,51.16
2022-08-19T12:09:23.731Z,49.76
2022-08-19T12:11:50.281Z,51.01
2022-08-19T12:14:16.936Z,48.36
2022-08-19T12:16:46.629Z,47.80
2022-08-19T12:19:21.890Z,47.88
2022-08-19T12:21:49.358Z,47.46
2022-08-19T12:24:15.737Z,47.77
2022-08-19T12:26:52.507Z,47.76
2022-08-19T12:29:23.646Z,47.13
2022-08-19T12:31:50.409Z,46.55
2022-08-19T12:34:16.938Z,47.39
2022-08-19T12:36:43.505Z,48.53
2022-08-19T12:39:10.663Z,47.46
2022-08-19T12:41:37.873Z,47.21
2022-08-19T12:44:18.332Z,47.08
2022-08-19T12:46:47.455Z,47.57
2022-08-19T12:49:52.301Z,46.79
2022-08-19T12:52:08.319Z,46.60
2022-08-19T12:54:36.120Z,46.47
2022-08-19T12:57:10.300Z,47.20
2022-08-19T12:59:38.669Z,46.79
2022-08-19T13:02:06.809Z,47.23
2022-08-19T13:04:34.696Z,46.96
2022-08-19T13:07:01.013Z,47.96
2022-08-19T13:09:27.483Z,47.72
2022-08-19T13:11:54.046Z,47.49
2022-08-19T13:14:20.636Z,47.82
2022-08-19T13:16:47.051Z,47.65
2022-08-19T13:19:13.391Z,46.14
2022-08-19T13:21:39.862Z,46.39
2022-08-19T13:24:08.996Z,46.06
2022-08-19T13:26:35.577Z,46.76
2022-08-19T13:29:01.980Z,47.65
2022-08-19T13:31:31.379Z,47.82
2022-08-19T13:33:57.703Z,46.53
2022-08-19T13:36:24.268Z,45.81
2022-08-19T13:38:50.662Z,44.93
2022-08-19T13:41:16.986Z,44.29
2022-08-19T13:43:43.392Z,44.72
2022-08-19T13:46:12.323Z,44.59
2022-08-19T13:48:38.714Z,44.54
2022-08-19T13:51:06.440Z,43.99
2022-08-19T13:53:32.824Z,42.29
2022-08-19T13:55:59.219Z,42.55
2022-08-19T13:58:25.670Z,42.73
2022-08-19T14:00:52.133Z,42.92
2022-08-19T14:03:18.689Z,42.62
2022-08-19T14:05:45.267Z,42.74
2022-08-19T14:08:11.598Z,42.73
2022-08-19T14:10:38.148Z,42.36
2022-08-19T14:13:05.310Z,42.45
2022-08-19T14:15:32.023Z,42.59
2022-08-19T14:17:58.582Z,39.86
2022-08-19T14:20:25.995Z,41.81
2022-08-19T14:22:53.358Z,41.81
2022-08-19T14:25:22.615Z,41.77
2022-08-19T14:27:50.381Z,40.51
2022-08-19T14:30:22.197Z,40.04
2022-08-19T14:32:48.880Z,38.84
2022-08-19T14:35:16.620Z,38.07
2022-08-19T14:37:45.801Z,38.65
2022-08-19T14:40:14.766Z,39.06
2022-08-19T14:42:41.727Z,38.14
2022-08-19T14:45:09.341Z,38.67
2022-08-19T14:47:36.149Z,38.40
2022-08-19T14:50:18.166Z,39.02
2022-08-19T14:52:45.970Z,38.67
2022-08-19T14:55:12.483Z,38.35
2022-08-19T14:57:40.984Z,38.25
2022-08-19T15:00:08.166Z,37.81
2022-08-19T15:02:35.547Z,38.00
2022-08-19T15:05:02.816Z,37.92
2022-08-19T15:07:29.646Z,37.63
2022-08-19T15:09:56.245Z,37.51
2022-08-19T15:12:22.560Z,38.01
2022-08-19T15:14:49.233Z,38.24
2022-08-19T15:17:18.682Z,38.39
2022-08-19T15:19:45.420Z,38.49
2022-08-19T15:22:12.387Z,38.37
2022-08-19T15:24:48.245Z,38.71
2022-08-19T15:27:14.800Z,38.55
2022-08-19T15:29:41.542Z,38.82
2022-08-19T15:32:08.879Z,38.79
2022-08-19T15:34:36.112Z,38.72
2022-08-19T15:37:03.258Z,39.50
2022-08-19T15:39:29.571Z,39.26
2022-08-19T15:41:55.973Z,39.13
2022-08-19T15:44:22.346Z,39.01
2022-08-19T15:46:49.216Z,39.06
2022-08-19T15:49:18.130Z,38.90
2022-08-19T15:51:47.543Z,38.69
2022-08-19T15:54:17.562Z,38.74
2022-08-19T15:56:44.384Z,38.78
2022-08-19T15:59:11.577Z,38.49
2022-08-19T16:01:40.925Z,38.77
2022-08-19T16:04:14.254Z,39.29
2022-08-19T16:06:51.010Z,38.33
2022-08-19T16:09:22.237Z,38.19
2022-08-19T16:11:56.732Z,38.69
2022-08-19T16:14:25.182Z,38.87
2022-08-19T16:16:51.910Z,39.09
2022-08-19T16:19:19.426Z,39.49
2022-08-19T16:21:50.200Z,40.26
2022-08-19T16:24:22.703Z,40.46
2022-08-19T16:26:49.097Z,40.06
2022-08-19T16:29:25.819Z,40.26
2022-08-19T16:32:01.297Z,40.25
2022-08-19T16:34:30.069Z,40.36
2022-08-19T16:36:56.394Z,40.83
2022-08-19T16:39:22.917Z,40.80
2022-08-19T16:41:49.595Z,40.48
2022-08-19T16:44:16.364Z,40.06
2022-08-19T16:46:43.035Z,39.33
2022-08-19T16:49:10.805Z,39.48
2022-08-19T16:51:38.529Z,39.40
2022-08-19T16:54:05.220Z,39.67
2022-08-19T16:56:31.535Z,39.32
2022-08-19T16:58:58.017Z,39.55
2022-08-19T17:01:24.591Z,39.59
2022-08-19T17:03:50.918Z,39.66
2022-08-19T17:06:21.194Z,40.22
2022-08-19T17:08:49.799Z,40.90
2022-08-19T17:11:18.958Z,40.93
2022-08-19T17:13:48.072Z,41.04
2022-08-19T17:16:18.885Z,41.41
2022-08-19T17:18:45.392Z,42.62
2022-08-19T17:21:11.738Z,41.73
2022-08-19T17:23:43.152Z,41.44
2022-08-19T17:26:16.822Z,41.79
2022-08-19T17:28:46.540Z,42.04
2022-08-19T17:31:13.089Z,41.91
2022-08-19T17:33:41.795Z,42.04
2022-08-19T17:36:08.676Z,42.38
2022-08-19T17:38:35.253Z,42.52
2022-08-19T17:41:01.756Z,42.83
2022-08-19T17:43:32.601Z,43.78
2022-08-19T17:46:02.642Z,44.01
2022-08-19T17:48:30.249Z,44.59
2022-08-19T17:50:57.012Z,45.57
2022-08-19T17:53:25.485Z,46.27
2022-08-19T17:55:51.867Z,46.39
2022-08-19T17:58:18.185Z,47.06
2022-08-19T18:00:54.040Z,47.09
2022-08-19T18:03:20.823Z,47.26
2022-08-19T18:05:47.239Z,46.73
2022-08-19T18:08:13.590Z,47.48
2022-08-19T18:10:40.154Z,48.12
2022-08-19T18:13:17.029Z,48.12
2022-08-19T18:15:44.429Z,47.96
2022-08-19T18:18:15.218Z,47.97
2022-08-19T18:20:42.162Z,47.45
2022-08-19T18:23:41.186Z,49.06
2022-08-19T18:25:54.937Z,49.69
2022-08-19T18:28:21.333Z,49.24
2022-08-19T18:30:47.632Z,49.34
2022-08-19T18:33:14.076Z,49.72
2022-08-19T18:35:44.102Z,49.24
2022-08-19T18:38:12.638Z,49.69
2022-08-19T18:40:39.216Z,50.19
2022-08-19T18:43:06.144Z,49.42
2022-08-19T18:45:33.267Z,48.98
2022-08-19T18:47:59.972Z,49.72
2022-08-19T18:50:26.506Z,49.59
2022-08-19T18:52:52.905Z,50.56
2022-08-19T18:55:19.639Z,50.41
2022-08-19T18:57:46.131Z,50.81
2022-08-19T19:00:13.134Z,51.90
2022-08-19T19:02:39.720Z,51.60
2022-08-19T19:05:07.743Z,51.87
2022-08-19T19:07:34.840Z,52.35
2022-08-19T19:10:01.154Z,52.81
2022-08-19T19:12:27.635Z,52.23
2022-08-19T19:14:54.163Z,52.13
2022-08-19T19:17:21.007Z,52.26
2022-08-19T19:19:47.562Z,52.66
2022-08-19T19:22:18.661Z,53.23
2022-08-19T19:24:45.307Z,52.84
2022-08-19T19:27:15.006Z,52.96
2022-08-19T19:29:42.422Z,53.22
2022-08-19T19:32:16.546Z,53.41
2022-08-19T19:34:43.298Z,53.51
2022-08-19T19:37:09.873Z,53.47
2022-08-19T19:39:45.988Z,53.33
2022-08-19T19:42:20.098Z,53.83
2022-08-19T19:44:48.578Z,54.69
2022-08-19T19:47:15.312Z,54.15
2022-08-19T19:50:03.767Z,54.40
2022-08-19T19:52:28.235Z,54.64
2022-08-19T19:54:54.551Z,55.62
2022-08-19T19:57:20.873Z,55.09
2022-08-19T19:59:51.525Z,55.22
2022-08-19T20:02:18.094Z,55.52
2022-08-19T20:04:44.405Z,55.23
2022-08-19T20:07:10.959Z,55.24
2022-08-19T20:09:58.343Z,55.17
2022-08-19T20:12:23.722Z,54.46
2022-08-19T20:14:50.101Z,54.62
2022-08-19T20:17:16.428Z,54.20
2022-08-19T20:19:42.892Z,54.96
2022-08-19T20:22:09.310Z,55.12
2022-08-19T20:24:37.289Z,56.05
2022-08-19T20:27:04.553Z,55.86
2022-08-19T20:29:39.391Z,55.58
2022-08-19T20:32:09.900Z,55.77
2022-08-19T20:34:36.217Z,55.17
2022-08-19T20:37:02.658Z,55.50
2022-08-19T20:39:29.269Z,55.70
2022-08-19T20:41:55.848Z,55.89
2022-08-19T20:44:22.261Z,56.35
2022-08-19T20:46:54.616Z,57.36
2022-08-19T20:49:22.360Z,56.90
2022-08-19T20:51:49.020Z,57.50
2022-08-19T20:54:15.431Z,57.91
2022-08-19T20:56:42.029Z,57.54
2022-08-19T20:59:08.439Z,57.53
2022-08-19T21:01:34.994Z,57.94
2022-08-19T21:04:01.594Z,58.15
2022-08-19T21:06:28.122Z,58.11
2022-08-19T21:08:55.918Z,58.46
2022-08-19T21:11:22.296Z,59.35
2022-08-19T21:13:48.953Z,59.90
2022-08-19T21:16:15.397Z,59.26
2022-08-19T21:18:41.793Z,59.48
2022-08-19T21:21:08.387Z,59.12
2022-08-19T21:23:34.974Z,58.75
2022-08-19T21:26:01.684Z,58.82
2022-08-19T21:28:34.994Z,58.68
2022-08-19T21:31:04.346Z,58.91
2022-08-19T21:33:31.886Z,59.71
2022-08-19T21:35:59.170Z,59.78
2022-08-19T21:38:25.882Z,59.64
2022-08-19T21:40:52.695Z,59.65
2022-08-19T21:43:19.035Z,59.86
2022-08-19T21:45:46.843Z,60.09
2022-08-19T21:48:13.898Z,60.28
2022-08-19T21:50:42.420Z,60.47
2022-08-19T21:53:11.941Z,60.59
2022-08-19T21:55:43.886Z,60.70
2022-08-19T21:58:10.282Z,60.04
2022-08-19T22:00:36.775Z,59.99
2022-08-19T22:03:03.947Z,60.20
2022-08-19T22:05:30.810Z,59.79
2022-08-19T22:07:59.229Z,60.05
2022-08-19T22:10:32.203Z,60.45
2022-08-19T22:12:58.935Z,61.09
2022-08-19T22:15:26.536Z,61.26
2022-08-19T22:17:53.583Z,61.56
2022-08-19T22:20:22.992Z,61.51
2022-08-19T22:22:53.574Z,61.84
2022-08-19T22:25:31.369Z,61.80
2022-08-19T22:28:02.400Z,61.72
2022-08-19T22:30:33.360Z,61.84
2022-08-19T22:33:02.209Z,62.17
2022-08-19T22:35:32.450Z,62.68
2022-08-19T22:37:59.625Z,63.27
2022-08-19T22:40:28.435Z,62.89
2022-08-19T22:43:28.415Z,62.72
2022-08-19T22:45:56.021Z,62.72
2022-08-19T22:48:25.577Z,61.78
2022-08-19T22:50:53.051Z,61.96
2022-08-19T22:53:19.374Z,62.28
2022-08-19T22:55:46.013Z,62.07
2022-08-19T22:58:12.317Z,62.55
2022-08-19T23:00:41.229Z,62.56
2022-08-19T23:03:07.795Z,62.22
2022-08-19T23:05:34.262Z,62.34
2022-08-19T23:08:04.287Z,62.66
2022-08-19T23:10:30.665Z,62.85
2022-08-19T23:12:58.419Z,63.44
2022-08-19T23:15:28.229Z,63.94
2022-08-19T23:17:59.836Z,63.67
2022-08-19T23:20:30.345Z,63.93
2022-08-19T23:22:57.518Z,64.01
2022-08-19T23:25:27.478Z,64.16
2022-08-19T23:27:54.105Z,63.67
2022-08-19T23:30:20.786Z,63.42
2022-08-19T23:32:47.107Z,63.51
2022-08-19T23:35:13.540Z,63.33
2022-08-19T23:37:39.865Z,63.44
2022-08-19T23:40:07.197Z,63.41
2022-08-19T23:42:33.664Z,63.62
2022-08-19T23:45:04.944Z,64.06
2022-08-19T23:47:32.135Z,64.15
2022-08-19T23:49:59.616Z,64.36
2022-08-19T23:52:26.297Z,64.91
2022-08-19T23:54:52.889Z,64.90
2022-08-19T23:57:19.338Z,64.96
2022-08-19T23:59:45.944Z,65.50
